sensor_id;sensor_type;location;lat;lon;timestamp;P1;durP1;ratioP1;P2;durP2;ratioP2
61358;SDS011;47228;46.762;23.598;2022-11-20T00:01:32;15.40;;;12.00;;
61358;SDS011;47228;46.762;23.598;2022-11-20T00:04:00;16.30;;;12.00;;
61358;SDS011;47228;46.762;23.598;2022-11-20T00:06:29;17.20;;;12.10;;
61358;SDS011;47228;46.762;23.598;2022-11-20T00:08:57;16.80;;;12.60;;
61358;SDS011;47228;46.762;23.598;2022-11-20T00:11:28;17.10;;;12.20;;
61358;SDS011;47228;46.762;23.598;2022-11-20T00:13:58;15.80;;;12.00;;
61358;SDS011;47228;46.762;23.598;2022-11-20T00:16:29;16.50;;;11.60;;
61358;SDS011;47228;46.762;23.598;2022-11-20T00:18:59;16.70;;;12.80;;
61358;SDS011;47228;46.762;23.598;2022-11-20T00:21:27;18.40;;;12.40;;
61358;SDS011;47228;46.762;23.598;2022-11-20T00:23:57;18.30;;;12.60;;
61358;SDS011;47228;46.762;23.598;2022-11-20T00:26:26;17.40;;;12.70;;
61358;SDS011;47228;46.762;23.598;2022-11-20T00:29:00;15.60;;;12.00;;
61358;SDS011;47228;46.762;23.598;2022-11-20T00:31:29;18.30;;;12.20;;
61358;SDS011;47228;46.762;23.598;2022-11-20T00:33:58;17.30;;;12.10;;
61358;SDS011;47228;46.762;23.598;2022-11-20T00:36:26;16.00;;;12.80;;
61358;SDS011;47228;46.762;23.598;2022-11-20T00:38:56;18.10;;;13.60;;
61358;SDS011;47228;46.762;23.598;2022-11-20T00:41:26;17.10;;;12.40;;
61358;SDS011;47228;46.762;23.598;2022-11-20T00:43:56;18.60;;;13.70;;
61358;SDS011;47228;46.762;23.598;2022-11-20T00:46:25;17.90;;;13.90;;
61358;SDS011;47228;46.762;23.598;2022-11-20T00:48:55;16.10;;;12.20;;
61358;SDS011;47228;46.762;23.598;2022-11-20T00:51:24;15.50;;;11.70;;
61358;SDS011;47228;46.762;23.598;2022-11-20T00:53:57;18.60;;;12.60;;
61358;SDS011;47228;46.762;23.598;2022-11-20T00:56:27;15.40;;;12.10;;
61358;SDS011;47228;46.762;23.598;2022-11-20T00:58:58;17.20;;;12.50;;
61358;SDS011;47228;46.762;23.598;2022-11-20T01:01:28;17.90;;;13.20;;
61358;SDS011;47228;46.762;23.598;2022-11-20T01:03:58;17.40;;;13.40;;
61358;SDS011;47228;46.762;23.598;2022-11-20T01:06:31;16.10;;;12.10;;
61358;SDS011;47228;46.762;23.598;2022-11-20T01:09:05;16.70;;;11.70;;
61358;SDS011;47228;46.762;23.598;2022-11-20T01:11:37;16.30;;;12.40;;
61358;SDS011;47228;46.762;23.598;2022-11-20T01:14:10;17.60;;;12.40;;
61358;SDS011;47228;46.762;23.598;2022-11-20T01:16:44;17.50;;;13.00;;
61358;SDS011;47228;46.762;23.598;2022-11-20T01:19:15;19.60;;;13.60;;
61358;SDS011;47228;46.762;23.598;2022-11-20T01:21:51;15.50;;;12.20;;
61358;SDS011;47228;46.762;23.598;2022-11-20T01:24:21;16.40;;;12.20;;
61358;SDS011;47228;46.762;23.598;2022-11-20T01:26:49;16.30;;;12.80;;
61358;SDS011;47228;46.762;23.598;2022-11-20T01:29:19;17.50;;;12.30;;
61358;SDS011;47228;46.762;23.598;2022-11-20T01:31:50;15.60;;;11.90;;
61358;SDS011;47228;46.762;23.598;2022-11-20T01:34:21;16.20;;;12.50;;
61358;SDS011;47228;46.762;23.598;2022-11-20T01:36:50;17.10;;;12.60;;
61358;SDS011;47228;46.762;23.598;2022-11-20T01:39:20;16.50;;;13.00;;
61358;SDS011;47228;46.762;23.598;2022-11-20T01:41:55;16.60;;;13.10;;
61358;SDS011;47228;46.762;23.598;2022-11-20T01:47:29;16.60;;;12.10;;
61358;SDS011;47228;46.762;23.598;2022-11-20T01:50:01;15.70;;;12.60;;
61358;SDS011;47228;46.762;23.598;2022-11-20T01:52:34;15.90;;;12.30;;
61358;SDS011;47228;46.762;23.598;2022-11-20T01:57:37;14.40;;;11.30;;
61358;SDS011;47228;46.762;23.598;2022-11-20T02:00:10;15.20;;;11.40;;
61358;SDS011;47228;46.762;23.598;2022-11-20T02:02:42;18.50;;;12.20;;
61358;SDS011;47228;46.762;23.598;2022-11-20T02:05:22;17.80;;;12.30;;
61358;SDS011;47228;46.762;23.598;2022-11-20T02:08:03;14.60;;;11.30;;
61358;SDS011;47228;46.762;23.598;2022-11-20T02:10:34;15.60;;;11.30;;
61358;SDS011;47228;46.762;23.598;2022-11-20T02:13:03;16.80;;;11.70;;
61358;SDS011;47228;46.762;23.598;2022-11-20T02:15:49;15.40;;;11.80;;
61358;SDS011;47228;46.762;23.598;2022-11-20T02:18:18;15.00;;;11.70;;
61358;SDS011;47228;46.762;23.598;2022-11-20T02:20:48;14.80;;;11.20;;
61358;SDS011;47228;46.762;23.598;2022-11-20T02:25:54;15.20;;;11.50;;
61358;SDS011;47228;46.762;23.598;2022-11-20T02:28:23;13.90;;;10.70;;
61358;SDS011;47228;46.762;23.598;2022-11-20T02:30:51;14.60;;;10.40;;
61358;SDS011;47228;46.762;23.598;2022-11-20T02:33:19;16.30;;;11.50;;
61358;SDS011;47228;46.762;23.598;2022-11-20T02:35:47;17.40;;;11.50;;
61358;SDS011;47228;46.762;23.598;2022-11-20T02:38:15;16.10;;;11.60;;
61358;SDS011;47228;46.762;23.598;2022-11-20T02:40:43;14.90;;;11.20;;
61358;SDS011;47228;46.762;23.598;2022-11-20T02:43:11;15.70;;;10.70;;
61358;SDS011;47228;46.762;23.598;2022-11-20T02:45:41;14.00;;;11.00;;
61358;SDS011;47228;46.762;23.598;2022-11-20T02:48:09;15.60;;;11.00;;
61358;SDS011;47228;46.762;23.598;2022-11-20T02:50:38;14.90;;;11.10;;
61358;SDS011;47228;46.762;23.598;2022-11-20T02:53:07;16.20;;;10.60;;
61358;SDS011;47228;46.762;23.598;2022-11-20T02:55:35;15.50;;;10.50;;
61358;SDS011;47228;46.762;23.598;2022-11-20T02:58:03;15.20;;;10.40;;
61358;SDS011;47228;46.762;23.598;2022-11-20T03:00:31;12.80;;;9.80;;
61358;SDS011;47228;46.762;23.598;2022-11-20T03:03:00;12.70;;;9.60;;
61358;SDS011;47228;46.762;23.598;2022-11-20T03:05:27;11.20;;;8.40;;
61358;SDS011;47228;46.762;23.598;2022-11-20T03:07:55;11.90;;;8.40;;
61358;SDS011;47228;46.762;23.598;2022-11-20T03:10:23;11.80;;;7.80;;
61358;SDS011;47228;46.762;23.598;2022-11-20T03:12:55;9.90;;;7.40;;
61358;SDS011;47228;46.762;23.598;2022-11-20T03:15:23;8.50;;;6.20;;
61358;SDS011;47228;46.762;23.598;2022-11-20T03:17:54;8.40;;;5.90;;
61358;SDS011;47228;46.762;23.598;2022-11-20T03:20:23;7.80;;;5.70;;
61358;SDS011;47228;46.762;23.598;2022-11-20T03:22:52;8.80;;;5.50;;
61358;SDS011;47228;46.762;23.598;2022-11-20T03:25:21;7.20;;;5.10;;
61358;SDS011;47228;46.762;23.598;2022-11-20T03:27:49;8.30;;;4.70;;
61358;SDS011;47228;46.762;23.598;2022-11-20T03:30:18;6.40;;;4.50;;
61358;SDS011;47228;46.762;23.598;2022-11-20T03:32:46;6.40;;;5.00;;
61358;SDS011;47228;46.762;23.598;2022-11-20T03:35:14;6.50;;;4.70;;
61358;SDS011;47228;46.762;23.598;2022-11-20T03:37:42;6.70;;;5.00;;
61358;SDS011;47228;46.762;23.598;2022-11-20T03:40:10;7.80;;;4.90;;
61358;SDS011;47228;46.762;23.598;2022-11-20T03:42:38;7.20;;;4.70;;
61358;SDS011;47228;46.762;23.598;2022-11-20T03:45:16;6.30;;;4.70;;
61358;SDS011;47228;46.762;23.598;2022-11-20T03:47:45;6.70;;;5.10;;
61358;SDS011;47228;46.762;23.598;2022-11-20T03:50:13;7.10;;;4.60;;
61358;SDS011;47228;46.762;23.598;2022-11-20T03:52:42;7.70;;;4.90;;
61358;SDS011;47228;46.762;23.598;2022-11-20T03:55:10;7.10;;;4.40;;
61358;SDS011;47228;46.762;23.598;2022-11-20T03:57:38;6.30;;;4.20;;
61358;SDS011;47228;46.762;23.598;2022-11-20T04:00:13;6.70;;;4.60;;
61358;SDS011;47228;46.762;23.598;2022-11-20T04:02:42;6.20;;;4.10;;
61358;SDS011;47228;46.762;23.598;2022-11-20T04:05:10;6.40;;;4.20;;
61358;SDS011;47228;46.762;23.598;2022-11-20T04:07:38;5.90;;;4.30;;
61358;SDS011;47228;46.762;23.598;2022-11-20T04:10:06;5.50;;;3.90;;
61358;SDS011;47228;46.762;23.598;2022-11-20T04:12:36;5.80;;;3.90;;
61358;SDS011;47228;46.762;23.598;2022-11-20T04:15:04;5.20;;;3.90;;
61358;SDS011;47228;46.762;23.598;2022-11-20T04:17:32;5.50;;;3.40;;
61358;SDS011;47228;46.762;23.598;2022-11-20T04:20:00;4.90;;;3.70;;
61358;SDS011;47228;46.762;23.598;2022-11-20T04:22:28;4.10;;;3.20;;
61358;SDS011;47228;46.762;23.598;2022-11-20T04:24:56;5.00;;;3.30;;
61358;SDS011;47228;46.762;23.598;2022-11-20T04:27:24;4.70;;;3.40;;
61358;SDS011;47228;46.762;23.598;2022-11-20T04:29:52;4.10;;;3.20;;
61358;SDS011;47228;46.762;23.598;2022-11-20T04:32:21;3.80;;;2.90;;
61358;SDS011;47228;46.762;23.598;2022-11-20T04:34:50;4.10;;;3.20;;
61358;SDS011;47228;46.762;23.598;2022-11-20T04:37:20;3.90;;;3.20;;
61358;SDS011;47228;46.762;23.598;2022-11-20T04:39:48;6.10;;;3.40;;
61358;SDS011;47228;46.762;23.598;2022-11-20T04:42:16;5.70;;;3.60;;
61358;SDS011;47228;46.762;23.598;2022-11-20T04:44:57;4.60;;;3.20;;
61358;SDS011;47228;46.762;23.598;2022-11-20T04:47:25;4.90;;;3.40;;
61358;SDS011;47228;46.762;23.598;2022-11-20T04:49:53;5.80;;;3.40;;
61358;SDS011;47228;46.762;23.598;2022-11-20T04:52:21;5.60;;;3.50;;
61358;SDS011;47228;46.762;23.598;2022-11-20T04:54:49;4.90;;;3.30;;
61358;SDS011;47228;46.762;23.598;2022-11-20T04:57:20;5.10;;;3.40;;
61358;SDS011;47228;46.762;23.598;2022-11-20T04:59:48;3.70;;;3.20;;
61358;SDS011;47228;46.762;23.598;2022-11-20T05:02:16;4.80;;;3.10;;
61358;SDS011;47228;46.762;23.598;2022-11-20T05:04:44;4.50;;;3.50;;
61358;SDS011;47228;46.762;23.598;2022-11-20T05:07:12;6.00;;;3.70;;
61358;SDS011;47228;46.762;23.598;2022-11-20T05:09:40;5.40;;;3.20;;
61358;SDS011;47228;46.762;23.598;2022-11-20T05:12:08;4.70;;;3.40;;
61358;SDS011;47228;46.762;23.598;2022-11-20T05:14:36;6.10;;;3.60;;
61358;SDS011;47228;46.762;23.598;2022-11-20T05:17:04;3.50;;;3.10;;
61358;SDS011;47228;46.762;23.598;2022-11-20T05:19:32;4.00;;;3.20;;
61358;SDS011;47228;46.762;23.598;2022-11-20T05:22:00;5.00;;;3.40;;
61358;SDS011;47228;46.762;23.598;2022-11-20T05:24:28;3.00;;;2.50;;
61358;SDS011;47228;46.762;23.598;2022-11-20T05:26:55;3.70;;;2.70;;
61358;SDS011;47228;46.762;23.598;2022-11-20T05:29:23;3.10;;;2.40;;
61358;SDS011;47228;46.762;23.598;2022-11-20T05:31:51;4.20;;;2.80;;
61358;SDS011;47228;46.762;23.598;2022-11-20T05:34:19;3.50;;;2.40;;
61358;SDS011;47228;46.762;23.598;2022-11-20T05:36:47;3.10;;;2.50;;
61358;SDS011;47228;46.762;23.598;2022-11-20T05:39:15;3.20;;;2.60;;
61358;SDS011;47228;46.762;23.598;2022-11-20T05:41:43;3.80;;;3.30;;
61358;SDS011;47228;46.762;23.598;2022-11-20T05:44:10;4.00;;;2.60;;
61358;SDS011;47228;46.762;23.598;2022-11-20T05:46:38;3.10;;;2.60;;
61358;SDS011;47228;46.762;23.598;2022-11-20T05:49:06;4.00;;;2.70;;
61358;SDS011;47228;46.762;23.598;2022-11-20T05:51:34;3.80;;;2.70;;
61358;SDS011;47228;46.762;23.598;2022-11-20T05:54:02;4.30;;;2.70;;
61358;SDS011;47228;46.762;23.598;2022-11-20T05:56:30;6.20;;;2.70;;
61358;SDS011;47228;46.762;23.598;2022-11-20T05:58:58;5.10;;;3.00;;
61358;SDS011;47228;46.762;23.598;2022-11-20T06:01:25;5.30;;;3.40;;
61358;SDS011;47228;46.762;23.598;2022-11-20T06:03:54;5.40;;;3.10;;
61358;SDS011;47228;46.762;23.598;2022-11-20T06:06:22;4.00;;;2.70;;
61358;SDS011;47228;46.762;23.598;2022-11-20T06:08:50;3.10;;;2.30;;
61358;SDS011;47228;46.762;23.598;2022-11-20T06:11:18;3.60;;;2.30;;
61358;SDS011;47228;46.762;23.598;2022-11-20T06:13:46;3.30;;;2.30;;
61358;SDS011;47228;46.762;23.598;2022-11-20T06:16:15;6.00;;;2.80;;
61358;SDS011;47228;46.762;23.598;2022-11-20T06:18:46;3.70;;;2.50;;
61358;SDS011;47228;46.762;23.598;2022-11-20T06:21:18;8.10;;;2.90;;
61358;SDS011;47228;46.762;23.598;2022-11-20T06:23:48;4.00;;;2.60;;
61358;SDS011;47228;46.762;23.598;2022-11-20T06:26:18;4.10;;;2.90;;
61358;SDS011;47228;46.762;23.598;2022-11-20T06:28:48;8.50;;;3.00;;
61358;SDS011;47228;46.762;23.598;2022-11-20T06:31:16;5.70;;;3.30;;
61358;SDS011;47228;46.762;23.598;2022-11-20T06:33:46;4.90;;;3.00;;
61358;SDS011;47228;46.762;23.598;2022-11-20T06:36:16;6.80;;;3.20;;
61358;SDS011;47228;46.762;23.598;2022-11-20T06:38:46;5.00;;;3.40;;
61358;SDS011;47228;46.762;23.598;2022-11-20T06:41:15;5.40;;;3.60;;
61358;SDS011;47228;46.762;23.598;2022-11-20T06:43:45;6.60;;;3.60;;
61358;SDS011;47228;46.762;23.598;2022-11-20T06:46:13;11.20;;;5.10;;
61358;SDS011;47228;46.762;23.598;2022-11-20T06:48:45;6.20;;;4.00;;
61358;SDS011;47228;46.762;23.598;2022-11-20T06:51:15;6.80;;;4.40;;
61358;SDS011;47228;46.762;23.598;2022-11-20T06:53:44;7.30;;;4.20;;
61358;SDS011;47228;46.762;23.598;2022-11-20T06:56:12;7.60;;;4.40;;
61358;SDS011;47228;46.762;23.598;2022-11-20T06:58:40;5.60;;;4.30;;
61358;SDS011;47228;46.762;23.598;2022-11-20T07:01:09;6.30;;;4.30;;
61358;SDS011;47228;46.762;23.598;2022-11-20T07:03:39;7.40;;;4.40;;
61358;SDS011;47228;46.762;23.598;2022-11-20T07:06:07;7.00;;;4.30;;
61358;SDS011;47228;46.762;23.598;2022-11-20T07:08:36;5.80;;;4.70;;
61358;SDS011;47228;46.762;23.598;2022-11-20T07:11:05;6.70;;;4.20;;
61358;SDS011;47228;46.762;23.598;2022-11-20T07:13:34;7.90;;;4.30;;
61358;SDS011;47228;46.762;23.598;2022-11-20T07:16:03;5.40;;;3.70;;
61358;SDS011;47228;46.762;23.598;2022-11-20T07:18:34;7.80;;;4.60;;
61358;SDS011;47228;46.762;23.598;2022-11-20T07:21:03;9.30;;;4.50;;
61358;SDS011;47228;46.762;23.598;2022-11-20T07:23:33;6.90;;;4.30;;
61358;SDS011;47228;46.762;23.598;2022-11-20T07:26:05;6.50;;;4.40;;
61358;SDS011;47228;46.762;23.598;2022-11-20T07:28:35;6.50;;;4.10;;
61358;SDS011;47228;46.762;23.598;2022-11-20T07:31:04;8.10;;;4.60;;
61358;SDS011;47228;46.762;23.598;2022-11-20T07:33:34;6.10;;;4.60;;
61358;SDS011;47228;46.762;23.598;2022-11-20T07:36:02;6.30;;;4.30;;
61358;SDS011;47228;46.762;23.598;2022-11-20T07:38:31;6.00;;;4.10;;
61358;SDS011;47228;46.762;23.598;2022-11-20T07:40:59;6.80;;;4.20;;
61358;SDS011;47228;46.762;23.598;2022-11-20T07:43:29;6.60;;;4.30;;
61358;SDS011;47228;46.762;23.598;2022-11-20T07:45:57;5.60;;;4.10;;
61358;SDS011;47228;46.762;23.598;2022-11-20T07:48:26;6.80;;;4.60;;
61358;SDS011;47228;46.762;23.598;2022-11-20T07:50:54;6.80;;;4.40;;
61358;SDS011;47228;46.762;23.598;2022-11-20T07:53:25;7.60;;;4.40;;
61358;SDS011;47228;46.762;23.598;2022-11-20T07:55:53;6.80;;;4.80;;
61358;SDS011;47228;46.762;23.598;2022-11-20T07:58:21;6.20;;;4.20;;
61358;SDS011;47228;46.762;23.598;2022-11-20T08:00:49;7.20;;;5.00;;
61358;SDS011;47228;46.762;23.598;2022-11-20T08:03:17;6.10;;;4.70;;
61358;SDS011;47228;46.762;23.598;2022-11-20T08:08:20;7.10;;;4.80;;
61358;SDS011;47228;46.762;23.598;2022-11-20T08:10:49;6.50;;;4.60;;
61358;SDS011;47228;46.762;23.598;2022-11-20T08:13:17;6.00;;;4.40;;
61358;SDS011;47228;46.762;23.598;2022-11-20T08:16:03;7.50;;;5.00;;
61358;SDS011;47228;46.762;23.598;2022-11-20T08:18:31;6.80;;;4.70;;
61358;SDS011;47228;46.762;23.598;2022-11-20T08:21:03;7.50;;;5.30;;
61358;SDS011;47228;46.762;23.598;2022-11-20T08:23:32;6.80;;;4.90;;
61358;SDS011;47228;46.762;23.598;2022-11-20T08:26:00;6.60;;;4.80;;
61358;SDS011;47228;46.762;23.598;2022-11-20T08:28:27;7.60;;;5.20;;
61358;SDS011;47228;46.762;23.598;2022-11-20T08:30:59;8.50;;;5.70;;
61358;SDS011;47228;46.762;23.598;2022-11-20T08:33:27;7.90;;;5.60;;
61358;SDS011;47228;46.762;23.598;2022-11-20T08:36:02;7.50;;;5.00;;
61358;SDS011;47228;46.762;23.598;2022-11-20T08:38:31;8.50;;;5.00;;
61358;SDS011;47228;46.762;23.598;2022-11-20T08:41:00;7.70;;;5.00;;
61358;SDS011;47228;46.762;23.598;2022-11-20T08:43:47;8.90;;;5.70;;
61358;SDS011;47228;46.762;23.598;2022-11-20T08:46:16;8.30;;;5.30;;
61358;SDS011;47228;46.762;23.598;2022-11-20T08:48:44;9.60;;;6.40;;
61358;SDS011;47228;46.762;23.598;2022-11-20T08:51:12;10.70;;;5.80;;
61358;SDS011;47228;46.762;23.598;2022-11-20T08:53:40;8.80;;;6.40;;
61358;SDS011;47228;46.762;23.598;2022-11-20T08:56:08;9.10;;;6.60;;
61358;SDS011;47228;46.762;23.598;2022-11-20T08:58:39;9.50;;;6.50;;
61358;SDS011;47228;46.762;23.598;2022-11-20T09:01:27;9.30;;;7.20;;
61358;SDS011;47228;46.762;23.598;2022-11-20T09:03:57;10.60;;;6.90;;
61358;SDS011;47228;46.762;23.598;2022-11-20T09:06:27;9.30;;;6.80;;
61358;SDS011;47228;46.762;23.598;2022-11-20T09:08:55;11.20;;;7.60;;
61358;SDS011;47228;46.762;23.598;2022-11-20T09:11:26;9.70;;;7.30;;
61358;SDS011;47228;46.762;23.598;2022-11-20T09:13:54;11.00;;;6.80;;
61358;SDS011;47228;46.762;23.598;2022-11-20T09:16:21;10.40;;;7.20;;
61358;SDS011;47228;46.762;23.598;2022-11-20T09:18:49;11.30;;;7.30;;
61358;SDS011;47228;46.762;23.598;2022-11-20T09:21:38;11.10;;;7.60;;
61358;SDS011;47228;46.762;23.598;2022-11-20T09:24:06;11.20;;;8.10;;
61358;SDS011;47228;46.762;23.598;2022-11-20T09:26:34;11.10;;;7.60;;
61358;SDS011;47228;46.762;23.598;2022-11-20T09:29:02;11.70;;;7.90;;
61358;SDS011;47228;46.762;23.598;2022-11-20T09:31:30;10.50;;;7.70;;
61358;SDS011;47228;46.762;23.598;2022-11-20T09:33:57;9.20;;;6.40;;
61358;SDS011;47228;46.762;23.598;2022-11-20T09:36:25;8.20;;;6.00;;
61358;SDS011;47228;46.762;23.598;2022-11-20T09:38:54;9.30;;;6.00;;
61358;SDS011;47228;46.762;23.598;2022-11-20T09:50:07;8.00;;;5.50;;
61358;SDS011;47228;46.762;23.598;2022-11-20T09:55:53;8.50;;;5.70;;
61358;SDS011;47228;46.762;23.598;2022-11-20T09:58:33;7.70;;;5.60;;
61358;SDS011;47228;46.762;23.598;2022-11-20T10:01:17;7.20;;;4.80;;
61358;SDS011;47228;46.762;23.598;2022-11-20T10:06:33;7.70;;;5.60;;
61358;SDS011;47228;46.762;23.598;2022-11-20T10:17:13;7.50;;;6.00;;
61358;SDS011;47228;46.762;23.598;2022-11-20T10:22:46;8.10;;;6.00;;
61358;SDS011;47228;46.762;23.598;2022-11-20T10:25:24;7.30;;;5.10;;
61358;SDS011;47228;46.762;23.598;2022-11-20T10:30:45;7.10;;;5.20;;
61358;SDS011;47228;46.762;23.598;2022-11-20T10:33:17;10.10;;;6.20;;
61358;SDS011;47228;46.762;23.598;2022-11-20T10:36:08;8.10;;;5.50;;
61358;SDS011;47228;46.762;23.598;2022-11-20T10:38:41;7.40;;;5.20;;
61358;SDS011;47228;46.762;23.598;2022-11-20T10:41:16;6.90;;;5.10;;
61358;SDS011;47228;46.762;23.598;2022-11-20T10:44:12;7.20;;;4.90;;
61358;SDS011;47228;46.762;23.598;2022-11-20T10:47:05;7.00;;;5.00;;
61358;SDS011;47228;46.762;23.598;2022-11-20T10:49:42;7.40;;;4.50;;
61358;SDS011;47228;46.762;23.598;2022-11-20T10:52:29;6.10;;;4.50;;
61358;SDS011;47228;46.762;23.598;2022-11-20T10:58:10;6.00;;;4.20;;
61358;SDS011;47228;46.762;23.598;2022-11-20T11:00:41;5.80;;;4.40;;
61358;SDS011;47228;46.762;23.598;2022-11-20T11:03:17;5.80;;;4.30;;
61358;SDS011;47228;46.762;23.598;2022-11-20T11:08:39;8.70;;;4.70;;
61358;SDS011;47228;46.762;23.598;2022-11-20T11:13:51;7.20;;;4.90;;
61358;SDS011;47228;46.762;23.598;2022-11-20T11:16:21;6.10;;;4.00;;
61358;SDS011;47228;46.762;23.598;2022-11-20T11:18:50;5.70;;;3.60;;
61358;SDS011;47228;46.762;23.598;2022-11-20T11:21:25;7.10;;;4.90;;
61358;SDS011;47228;46.762;23.598;2022-11-20T11:23:58;5.10;;;3.70;;
61358;SDS011;47228;46.762;23.598;2022-11-20T11:26:56;5.40;;;3.90;;
61358;SDS011;47228;46.762;23.598;2022-11-20T11:29:26;4.00;;;3.00;;
61358;SDS011;47228;46.762;23.598;2022-11-20T11:32:06;6.50;;;3.20;;
61358;SDS011;47228;46.762;23.598;2022-11-20T11:35:23;4.80;;;3.00;;
61358;SDS011;47228;46.762;23.598;2022-11-20T11:40:32;4.60;;;3.40;;
61358;SDS011;47228;46.762;23.598;2022-11-20T11:43:04;4.00;;;2.80;;
61358;SDS011;47228;46.762;23.598;2022-11-20T11:45:54;3.50;;;2.80;;
61358;SDS011;47228;46.762;23.598;2022-11-20T11:48:23;4.20;;;3.00;;
61358;SDS011;47228;46.762;23.598;2022-11-20T11:50:50;3.10;;;2.80;;
61358;SDS011;47228;46.762;23.598;2022-11-20T11:53:20;3.00;;;2.60;;
61358;SDS011;47228;46.762;23.598;2022-11-20T12:03:51;4.50;;;3.10;;
61358;SDS011;47228;46.762;23.598;2022-11-20T12:06:26;3.90;;;2.90;;
61358;SDS011;47228;46.762;23.598;2022-11-20T12:08:59;4.50;;;3.20;;
61358;SDS011;47228;46.762;23.598;2022-11-20T12:11:31;4.20;;;3.20;;
61358;SDS011;47228;46.762;23.598;2022-11-20T12:14:18;3.20;;;2.60;;
61358;SDS011;47228;46.762;23.598;2022-11-20T12:16:52;3.40;;;2.60;;
61358;SDS011;47228;46.762;23.598;2022-11-20T12:19:24;3.30;;;2.40;;
61358;SDS011;47228;46.762;23.598;2022-11-20T12:21:54;5.00;;;3.30;;
61358;SDS011;47228;46.762;23.598;2022-11-20T12:30:03;4.30;;;3.10;;
61358;SDS011;47228;46.762;23.598;2022-11-20T12:44:16;5.20;;;3.20;;
61358;SDS011;47228;46.762;23.598;2022-11-20T12:46:54;4.10;;;2.90;;
61358;SDS011;47228;46.762;23.598;2022-11-20T12:49:46;5.10;;;3.10;;
61358;SDS011;47228;46.762;23.598;2022-11-20T12:52:55;5.40;;;3.20;;
61358;SDS011;47228;46.762;23.598;2022-11-20T13:01:08;3.10;;;2.60;;
61358;SDS011;47228;46.762;23.598;2022-11-20T13:07:12;5.10;;;2.90;;
61358;SDS011;47228;46.762;23.598;2022-11-20T13:09:45;4.20;;;2.60;;
61358;SDS011;47228;46.762;23.598;2022-11-20T13:17:40;3.90;;;2.90;;
61358;SDS011;47228;46.762;23.598;2022-11-20T13:20:14;3.90;;;2.80;;
61358;SDS011;47228;46.762;23.598;2022-11-20T13:22:45;4.50;;;3.00;;
61358;SDS011;47228;46.762;23.598;2022-11-20T13:28:03;3.60;;;2.70;;
61358;SDS011;47228;46.762;23.598;2022-11-20T13:30:48;4.60;;;3.00;;
61358;SDS011;47228;46.762;23.598;2022-11-20T13:33:37;4.40;;;3.10;;
61358;SDS011;47228;46.762;23.598;2022-11-20T13:36:19;5.60;;;3.40;;
61358;SDS011;47228;46.762;23.598;2022-11-20T13:38:49;5.80;;;3.60;;
61358;SDS011;47228;46.762;23.598;2022-11-20T13:44:15;5.00;;;3.10;;
61358;SDS011;47228;46.762;23.598;2022-11-20T13:46:51;5.40;;;3.20;;
61358;SDS011;47228;46.762;23.598;2022-11-20T13:55:05;3.50;;;2.60;;
61358;SDS011;47228;46.762;23.598;2022-11-20T13:57:57;3.10;;;2.40;;
61358;SDS011;47228;46.762;23.598;2022-11-20T14:00:27;3.30;;;2.50;;
61358;SDS011;47228;46.762;23.598;2022-11-20T14:03:00;3.20;;;2.50;;
61358;SDS011;47228;46.762;23.598;2022-11-20T14:05:28;3.30;;;2.40;;
61358;SDS011;47228;46.762;23.598;2022-11-20T14:08:03;2.80;;;2.30;;
61358;SDS011;47228;46.762;23.598;2022-11-20T14:10:33;2.80;;;2.30;;
61358;SDS011;47228;46.762;23.598;2022-11-20T14:13:20;4.20;;;2.50;;
61358;SDS011;47228;46.762;23.598;2022-11-20T14:15:48;3.20;;;2.30;;
61358;SDS011;47228;46.762;23.598;2022-11-20T14:18:26;2.90;;;2.60;;
61358;SDS011;47228;46.762;23.598;2022-11-20T14:20:54;3.90;;;2.60;;
61358;SDS011;47228;46.762;23.598;2022-11-20T14:23:26;4.90;;;2.70;;
61358;SDS011;47228;46.762;23.598;2022-11-20T14:25:57;3.10;;;2.40;;
61358;SDS011;47228;46.762;23.598;2022-11-20T14:30:55;3.30;;;2.70;;
61358;SDS011;47228;46.762;23.598;2022-11-20T14:33:25;3.20;;;2.60;;
61358;SDS011;47228;46.762;23.598;2022-11-20T14:35:55;2.80;;;2.50;;
61358;SDS011;47228;46.762;23.598;2022-11-20T14:38:25;4.00;;;2.60;;
61358;SDS011;47228;46.762;23.598;2022-11-20T14:41:05;4.00;;;2.80;;
61358;SDS011;47228;46.762;23.598;2022-11-20T14:43:35;3.30;;;2.50;;
61358;SDS011;47228;46.762;23.598;2022-11-20T14:46:06;3.80;;;2.30;;
61358;SDS011;47228;46.762;23.598;2022-11-20T14:51:31;2.60;;;2.40;;
61358;SDS011;47228;46.762;23.598;2022-11-20T14:54:11;3.10;;;2.50;;
61358;SDS011;47228;46.762;23.598;2022-11-20T14:56:42;3.40;;;2.60;;
61358;SDS011;47228;46.762;23.598;2022-11-20T14:59:27;4.40;;;2.90;;
61358;SDS011;47228;46.762;23.598;2022-11-20T15:02:10;4.40;;;3.10;;
61358;SDS011;47228;46.762;23.598;2022-11-20T15:04:46;3.50;;;3.00;;
61358;SDS011;47228;46.762;23.598;2022-11-20T15:07:25;3.80;;;3.00;;
61358;SDS011;47228;46.762;23.598;2022-11-20T15:10:03;4.60;;;3.20;;
61358;SDS011;47228;46.762;23.598;2022-11-20T15:12:45;4.00;;;3.10;;
61358;SDS011;47228;46.762;23.598;2022-11-20T15:15:24;5.10;;;3.20;;
61358;SDS011;47228;46.762;23.598;2022-11-20T15:18:01;4.40;;;3.40;;
61358;SDS011;47228;46.762;23.598;2022-11-20T15:20:30;5.60;;;3.60;;
61358;SDS011;47228;46.762;23.598;2022-11-20T15:23:00;3.90;;;3.10;;
61358;SDS011;47228;46.762;23.598;2022-11-20T15:25:27;4.20;;;3.20;;
61358;SDS011;47228;46.762;23.598;2022-11-20T15:27:56;4.40;;;3.30;;
61358;SDS011;47228;46.762;23.598;2022-11-20T15:30:24;3.80;;;3.00;;
61358;SDS011;47228;46.762;23.598;2022-11-20T15:32:52;5.10;;;3.50;;
61358;SDS011;47228;46.762;23.598;2022-11-20T15:35:20;5.10;;;3.10;;
61358;SDS011;47228;46.762;23.598;2022-11-20T15:37:48;4.20;;;3.30;;
61358;SDS011;47228;46.762;23.598;2022-11-20T15:40:16;5.10;;;3.10;;
61358;SDS011;47228;46.762;23.598;2022-11-20T15:42:44;5.60;;;3.20;;
61358;SDS011;47228;46.762;23.598;2022-11-20T15:45:53;4.30;;;3.20;;
61358;SDS011;47228;46.762;23.598;2022-11-20T15:48:28;3.50;;;2.90;;
61358;SDS011;47228;46.762;23.598;2022-11-20T15:51:03;4.50;;;3.40;;
61358;SDS011;47228;46.762;23.598;2022-11-20T15:53:41;4.90;;;3.40;;
61358;SDS011;47228;46.762;23.598;2022-11-20T15:56:11;4.70;;;3.30;;
61358;SDS011;47228;46.762;23.598;2022-11-20T15:58:40;5.20;;;3.10;;
61358;SDS011;47228;46.762;23.598;2022-11-20T16:01:12;3.50;;;2.90;;
61358;SDS011;47228;46.762;23.598;2022-11-20T16:06:10;7.30;;;4.30;;
61358;SDS011;47228;46.762;23.598;2022-11-20T16:08:38;8.20;;;4.60;;
61358;SDS011;47228;46.762;23.598;2022-11-20T16:11:06;11.00;;;6.30;;
61358;SDS011;47228;46.762;23.598;2022-11-20T16:13:35;10.30;;;6.80;;
61358;SDS011;47228;46.762;23.598;2022-11-20T16:16:25;8.60;;;4.70;;
61358;SDS011;47228;46.762;23.598;2022-11-20T16:18:59;8.10;;;5.60;;
61358;SDS011;47228;46.762;23.598;2022-11-20T16:21:27;10.40;;;6.70;;
61358;SDS011;47228;46.762;23.598;2022-11-20T16:23:59;9.80;;;5.40;;
61358;SDS011;47228;46.762;23.598;2022-11-20T16:26:29;8.30;;;5.10;;
61358;SDS011;47228;46.762;23.598;2022-11-20T16:28:58;6.80;;;4.50;;
61358;SDS011;47228;46.762;23.598;2022-11-20T16:31:26;8.40;;;4.00;;
61358;SDS011;47228;46.762;23.598;2022-11-20T16:33:55;7.50;;;4.30;;
61358;SDS011;47228;46.762;23.598;2022-11-20T16:36:24;7.80;;;5.40;;
61358;SDS011;47228;46.762;23.598;2022-11-20T16:38:55;5.40;;;3.90;;
61358;SDS011;47228;46.762;23.598;2022-11-20T16:41:25;5.10;;;3.60;;
61358;SDS011;47228;46.762;23.598;2022-11-20T16:43:56;4.90;;;3.40;;